CKS863 RJGG-VHHH
Flight info
| Callsign | CKS863 |
|---|---|
| Flight time | N/A |
| Altitude | 34000 |
| Route | KEC Y24 KOSHI Y50 IGMON A1 ELATO V522 ABBEY |
| Aircraft | B77L/H-SDE1E2E3FGHIJ2J3J4J5M1RWXY/LB1D1 |
Departure
| Time | N/A |
|---|---|
| Airport | Chubu Centrair International Airport (RJGG) |
Arrival
| Time | 2026-05-07 15:54 |
|---|---|
| Airport | Hong Kong International Airport (VHHH) |
| Time | Latitude | Longitude | Altitude | Speed | Heading |
|---|---|---|---|---|---|
| 2026-05-07 14:54 | 23.56005 | 119.57577 | 33955 ft | 465 kts | 242° |
| 2026-05-07 14:55 | 23.52527 | 119.51572 | 33949 ft | 465 kts | 242° |
| 2026-05-07 14:55 | 23.49081 | 119.45629 | 33949 ft | 465 kts | 242° |
| 2026-05-07 14:56 | 23.45651 | 119.39722 | 33950 ft | 466 kts | 242° |
| 2026-05-07 14:56 | 23.42609 | 119.34489 | 33949 ft | 465 kts | 242° |
| 2026-05-07 14:57 | 23.39160 | 119.28561 | 33954 ft | 466 kts | 242° |
| 2026-05-07 14:57 | 23.35677 | 119.22584 | 33954 ft | 466 kts | 242° |
| 2026-05-07 14:58 | 23.32213 | 119.16645 | 33953 ft | 466 kts | 242° |
| 2026-05-07 14:58 | 23.28737 | 119.10693 | 33952 ft | 466 kts | 242° |
| 2026-05-07 14:59 | 23.25256 | 119.04740 | 33952 ft | 467 kts | 242° |
| 2026-05-07 14:59 | 23.21774 | 118.98791 | 33952 ft | 468 kts | 241° |
| 2026-05-07 15:00 | 23.18289 | 118.92845 | 33951 ft | 469 kts | 241° |
| 2026-05-07 15:00 | 23.14800 | 118.86899 | 33950 ft | 468 kts | 241° |
| 2026-05-07 15:01 | 23.11320 | 118.80975 | 33951 ft | 466 kts | 241° |
| 2026-05-07 15:01 | 23.07832 | 118.75044 | 33949 ft | 466 kts | 241° |
| 2026-05-07 15:02 | 23.04333 | 118.69101 | 33949 ft | 466 kts | 241° |
| 2026-05-07 15:02 | 23.00850 | 118.63193 | 33949 ft | 466 kts | 241° |
| 2026-05-07 15:03 | 22.97368 | 118.57292 | 33950 ft | 465 kts | 241° |
| 2026-05-07 15:03 | 22.93884 | 118.51405 | 33946 ft | 464 kts | 241° |
| 2026-05-07 15:04 | 22.90381 | 118.45516 | 33950 ft | 467 kts | 241° |
| 2026-05-07 15:04 | 22.87157 | 118.40103 | 33944 ft | 465 kts | 241° |
| 2026-05-07 15:05 | 22.84115 | 118.34998 | 33942 ft | 466 kts | 241° |
| 2026-05-07 15:05 | 22.80773 | 118.29398 | 33951 ft | 466 kts | 240° |
| 2026-05-07 15:06 | 22.77244 | 118.23489 | 33951 ft | 466 kts | 241° |
| 2026-05-07 15:06 | 22.73735 | 118.17622 | 33950 ft | 468 kts | 241° |
| 2026-05-07 15:07 | 22.70187 | 118.11694 | 33950 ft | 470 kts | 240° |
| 2026-05-07 15:07 | 22.66642 | 118.05778 | 33953 ft | 470 kts | 241° |
| 2026-05-07 15:08 | 22.63171 | 117.99765 | 33962 ft | 467 kts | 247° |
| 2026-05-07 15:08 | 22.61141 | 117.93198 | 33959 ft | 458 kts | 263° |
| 2026-05-07 15:09 | 22.60196 | 117.86356 | 33949 ft | 460 kts | 265° |
| 2026-05-07 15:09 | 22.59284 | 117.79548 | 33950 ft | 460 kts | 264° |
| 2026-05-07 15:10 | 22.58356 | 117.72656 | 33948 ft | 459 kts | 265° |
| 2026-05-07 15:10 | 22.57431 | 117.65805 | 33946 ft | 460 kts | 265° |
| 2026-05-07 15:11 | 22.56499 | 117.58926 | 33947 ft | 460 kts | 265° |
| 2026-05-07 15:11 | 22.55568 | 117.52083 | 33945 ft | 460 kts | 265° |
| 2026-05-07 15:12 | 22.54630 | 117.45207 | 33946 ft | 461 kts | 264° |
| 2026-05-07 15:12 | 22.53687 | 117.38328 | 33945 ft | 460 kts | 264° |
| 2026-05-07 15:13 | 22.52742 | 117.31460 | 33952 ft | 460 kts | 264° |
| 2026-05-07 15:13 | 22.51795 | 117.24599 | 33949 ft | 461 kts | 264° |
| 2026-05-07 15:14 | 22.50848 | 117.17763 | 33952 ft | 460 kts | 264° |
| 2026-05-07 15:14 | 22.49901 | 117.10955 | 33949 ft | 460 kts | 264° |
| 2026-05-07 15:15 | 22.48940 | 117.04068 | 33951 ft | 462 kts | 264° |
| 2026-05-07 15:15 | 22.47979 | 116.97210 | 33949 ft | 462 kts | 264° |
| 2026-05-07 15:16 | 22.47011 | 116.90327 | 33939 ft | 460 kts | 264° |
| 2026-05-07 15:16 | 22.46041 | 116.83459 | 33933 ft | 460 kts | 264° |
| 2026-05-07 15:17 | 22.45071 | 116.76613 | 33932 ft | 460 kts | 264° |
| 2026-05-07 15:17 | 22.44094 | 116.69745 | 33931 ft | 460 kts | 264° |
| 2026-05-07 15:18 | 22.43122 | 116.62936 | 33929 ft | 458 kts | 264° |
| 2026-05-07 15:18 | 22.42140 | 116.56081 | 33931 ft | 459 kts | 264° |
| 2026-05-07 15:19 | 22.41151 | 116.49210 | 33931 ft | 459 kts | 264° |
| 2026-05-07 15:19 | 22.40164 | 116.42383 | 33931 ft | 459 kts | 264° |
| 2026-05-07 15:20 | 22.39173 | 116.35547 | 33931 ft | 460 kts | 264° |
| 2026-05-07 15:20 | 22.38181 | 116.28735 | 33938 ft | 460 kts | 264° |
| 2026-05-07 15:21 | 22.37250 | 116.22371 | 33938 ft | 458 kts | 264° |
| 2026-05-07 15:21 | 22.36264 | 116.15659 | 33937 ft | 458 kts | 264° |
| 2026-05-07 15:22 | 22.35262 | 116.08874 | 33355 ft | 452 kts | 264° |
| 2026-05-07 15:22 | 22.34764 | 116.05502 | 32342 ft | 457 kts | 264° |
| 2026-05-07 15:22 | 22.34266 | 116.02142 | 31602 ft | 457 kts | 263° |
| 2026-05-07 15:23 | 22.33765 | 115.98778 | 30853 ft | 458 kts | 263° |
| 2026-05-07 15:23 | 22.33260 | 115.95392 | 30336 ft | 452 kts | 263° |
| 2026-05-07 15:23 | 22.32762 | 115.92065 | 29905 ft | 448 kts | 263° |
| 2026-05-07 15:23 | 22.32258 | 115.88690 | 29415 ft | 465 kts | 263° |
| 2026-05-07 15:24 | 22.31742 | 115.85253 | 28884 ft | 466 kts | 263° |
| 2026-05-07 15:24 | 22.31227 | 115.81841 | 28355 ft | 462 kts | 263° |
| 2026-05-07 15:24 | 22.30710 | 115.78441 | 27835 ft | 457 kts | 263° |
| 2026-05-07 15:24 | 22.30196 | 115.75075 | 27307 ft | 453 kts | 263° |
| 2026-05-07 15:25 | 22.29684 | 115.71745 | 26763 ft | 448 kts | 263° |
| 2026-05-07 15:25 | 22.29270 | 115.68412 | 26227 ft | 443 kts | 268° |
| 2026-05-07 15:25 | 22.29149 | 115.65130 | 25682 ft | 438 kts | 270° |
| 2026-05-07 15:25 | 22.29065 | 115.61874 | 25129 ft | 434 kts | 270° |
| 2026-05-07 15:26 | 22.28981 | 115.58663 | 24584 ft | 430 kts | 270° |
| 2026-05-07 15:26 | 22.28895 | 115.55436 | 24033 ft | 427 kts | 270° |
| 2026-05-07 15:26 | 22.28809 | 115.52278 | 23498 ft | 423 kts | 270° |
| 2026-05-07 15:26 | 22.28721 | 115.49075 | 22952 ft | 419 kts | 270° |
| 2026-05-07 15:27 | 22.28635 | 115.45948 | 22415 ft | 416 kts | 270° |
| 2026-05-07 15:27 | 22.28548 | 115.42873 | 21883 ft | 412 kts | 270° |
| 2026-05-07 15:27 | 22.28461 | 115.39802 | 21348 ft | 409 kts | 269° |
| 2026-05-07 15:27 | 22.28373 | 115.36730 | 20811 ft | 406 kts | 269° |
| 2026-05-07 15:28 | 22.28289 | 115.33823 | 20300 ft | 403 kts | 269° |
| 2026-05-07 15:28 | 22.28198 | 115.30755 | 19762 ft | 400 kts | 269° |
| 2026-05-07 15:28 | 22.28105 | 115.27716 | 19226 ft | 397 kts | 269° |
| 2026-05-07 15:28 | 22.28013 | 115.24695 | 18682 ft | 394 kts | 269° |
| 2026-05-07 15:29 | 22.27919 | 115.21659 | 18141 ft | 391 kts | 269° |
| 2026-05-07 15:29 | 22.27861 | 115.19795 | 17811 ft | 389 kts | 269° |
| 2026-05-07 15:29 | 22.27770 | 115.16871 | 17291 ft | 387 kts | 269° |
| 2026-05-07 15:29 | 22.27678 | 115.13928 | 16765 ft | 384 kts | 269° |
| 2026-05-07 15:30 | 22.27588 | 115.11061 | 16248 ft | 382 kts | 269° |
| 2026-05-07 15:30 | 22.27494 | 115.08099 | 15708 ft | 379 kts | 269° |
| 2026-05-07 15:30 | 22.27404 | 115.05258 | 15196 ft | 377 kts | 269° |
| 2026-05-07 15:30 | 22.27313 | 115.02435 | 14685 ft | 374 kts | 269° |
| 2026-05-07 15:31 | 22.27224 | 114.99655 | 14182 ft | 372 kts | 269° |
| 2026-05-07 15:31 | 22.27133 | 114.96874 | 13671 ft | 370 kts | 269° |
| 2026-05-07 15:31 | 22.27043 | 114.94112 | 13173 ft | 367 kts | 269° |
| 2026-05-07 15:31 | 22.26954 | 114.91363 | 12668 ft | 365 kts | 268° |
| 2026-05-07 15:32 | 22.26863 | 114.88625 | 12168 ft | 363 kts | 268° |
| 2026-05-07 15:32 | 22.26774 | 114.85922 | 11675 ft | 360 kts | 268° |
| 2026-05-07 15:32 | 22.26685 | 114.83240 | 11192 ft | 358 kts | 268° |
| 2026-05-07 15:32 | 22.26447 | 114.80586 | 10955 ft | 346 kts | 257° |
| 2026-05-07 15:33 | 22.25565 | 114.78239 | 10930 ft | 330 kts | 240° |
| 2026-05-07 15:33 | 22.24251 | 114.76253 | 10823 ft | 329 kts | 232° |
| 2026-05-07 15:33 | 22.22730 | 114.74393 | 10656 ft | 329 kts | 228° |
| 2026-05-07 15:33 | 22.21137 | 114.72636 | 10503 ft | 325 kts | 226° |
| 2026-05-07 15:34 | 22.19528 | 114.70946 | 10362 ft | 314 kts | 226° |
| 2026-05-07 15:34 | 22.17985 | 114.69352 | 10229 ft | 303 kts | 225° |
| 2026-05-07 15:34 | 22.16478 | 114.67803 | 10098 ft | 292 kts | 226° |
| 2026-05-07 15:34 | 22.15030 | 114.66316 | 9973 ft | 282 kts | 225° |
| 2026-05-07 15:35 | 22.13621 | 114.64867 | 9848 ft | 279 kts | 225° |
| 2026-05-07 15:35 | 22.12207 | 114.63415 | 9715 ft | 280 kts | 225° |
| 2026-05-07 15:35 | 22.10804 | 114.61974 | 9580 ft | 280 kts | 225° |
| 2026-05-07 15:35 | 22.09392 | 114.60526 | 9444 ft | 279 kts | 225° |
| 2026-05-07 15:36 | 22.07982 | 114.59081 | 9310 ft | 278 kts | 225° |
| 2026-05-07 15:36 | 22.06572 | 114.57635 | 9178 ft | 278 kts | 225° |
| 2026-05-07 15:36 | 22.05177 | 114.56206 | 9045 ft | 277 kts | 225° |
| 2026-05-07 15:36 | 22.03788 | 114.54782 | 8914 ft | 277 kts | 225° |
| 2026-05-07 15:37 | 22.02472 | 114.53265 | 8775 ft | 274 kts | 239° |
| 2026-05-07 15:37 | 22.01608 | 114.51458 | 8660 ft | 275 kts | 248° |
| 2026-05-07 15:37 | 22.00863 | 114.49551 | 8522 ft | 273 kts | 249° |
| 2026-05-07 15:37 | 22.00141 | 114.47652 | 8388 ft | 273 kts | 249° |
| 2026-05-07 15:38 | 21.99419 | 114.45758 | 8260 ft | 273 kts | 249° |
| 2026-05-07 15:38 | 21.98696 | 114.43868 | 8134 ft | 272 kts | 249° |
| 2026-05-07 15:38 | 21.97974 | 114.41982 | 8011 ft | 272 kts | 249° |
| 2026-05-07 15:38 | 21.97261 | 114.40119 | 7889 ft | 272 kts | 249° |
| 2026-05-07 15:39 | 21.96541 | 114.38239 | 7766 ft | 270 kts | 249° |
| 2026-05-07 15:39 | 21.95825 | 114.36372 | 7641 ft | 271 kts | 249° |
| 2026-05-07 15:39 | 21.95123 | 114.34541 | 7521 ft | 270 kts | 248° |
| 2026-05-07 15:39 | 21.94398 | 114.32653 | 7398 ft | 271 kts | 248° |
| 2026-05-07 15:40 | 21.93679 | 114.30778 | 7276 ft | 269 kts | 249° |
| 2026-05-07 15:40 | 21.92962 | 114.28912 | 7152 ft | 269 kts | 249° |
| 2026-05-07 15:40 | 21.92250 | 114.27058 | 7029 ft | 268 kts | 249° |
| 2026-05-07 15:40 | 21.91525 | 114.25172 | 6907 ft | 269 kts | 249° |
| 2026-05-07 15:41 | 21.90819 | 114.23334 | 6785 ft | 268 kts | 249° |
| 2026-05-07 15:41 | 21.90108 | 114.21484 | 6663 ft | 268 kts | 249° |
| 2026-05-07 15:41 | 21.89766 | 114.20170 | 6580 ft | 268 kts | 266° |
| 2026-05-07 15:41 | 21.89998 | 114.18194 | 6475 ft | 267 kts | 290° |
| 2026-05-07 15:42 | 21.90757 | 114.16348 | 6351 ft | 268 kts | 297° |
| 2026-05-07 15:42 | 21.91638 | 114.14583 | 6214 ft | 267 kts | 299° |
| 2026-05-07 15:42 | 21.92532 | 114.12853 | 6098 ft | 267 kts | 299° |
| 2026-05-07 15:42 | 21.93450 | 114.11079 | 5998 ft | 266 kts | 300° |
| 2026-05-07 15:43 | 21.94343 | 114.09355 | 5886 ft | 268 kts | 299° |
| 2026-05-07 15:43 | 21.95251 | 114.07599 | 5750 ft | 267 kts | 299° |
| 2026-05-07 15:43 | 21.96158 | 114.05843 | 5625 ft | 265 kts | 299° |
| 2026-05-07 15:43 | 21.97047 | 114.04123 | 5504 ft | 258 kts | 299° |
| 2026-05-07 15:44 | 21.97908 | 114.02455 | 5389 ft | 255 kts | 299° |
| 2026-05-07 15:44 | 21.98767 | 114.00790 | 5274 ft | 253 kts | 299° |
| 2026-05-07 15:44 | 21.99624 | 113.99130 | 5158 ft | 252 kts | 300° |
| 2026-05-07 15:44 | 22.00473 | 113.97483 | 5042 ft | 251 kts | 300° |
| 2026-05-07 15:45 | 22.01325 | 113.95832 | 4928 ft | 252 kts | 299° |
| 2026-05-07 15:45 | 22.02181 | 113.94170 | 4813 ft | 252 kts | 299° |
| 2026-05-07 15:45 | 22.03037 | 113.92510 | 4696 ft | 252 kts | 299° |
| 2026-05-07 15:45 | 22.03891 | 113.90848 | 4587 ft | 252 kts | 298° |
| 2026-05-07 15:46 | 22.05589 | 113.87534 | 4362 ft | 252 kts | 298° |
| 2026-05-07 15:46 | 22.06433 | 113.85893 | 4246 ft | 251 kts | 298° |
| 2026-05-07 15:46 | 22.07281 | 113.84245 | 4127 ft | 251 kts | 298° |
| 2026-05-07 15:47 | 22.08122 | 113.82611 | 4022 ft | 250 kts | 298° |
| 2026-05-07 15:47 | 22.08966 | 113.80970 | 3979 ft | 250 kts | 298° |
| 2026-05-07 15:47 | 22.09814 | 113.79321 | 3967 ft | 251 kts | 298° |
| 2026-05-07 15:47 | 22.10838 | 113.77780 | 3808 ft | 249 kts | 319° |
| 2026-05-07 15:48 | 22.12276 | 113.76811 | 3573 ft | 242 kts | 333° |
| 2026-05-07 15:48 | 22.13800 | 113.76027 | 3332 ft | 236 kts | 335° |
| 2026-05-07 15:48 | 22.15290 | 113.75287 | 3091 ft | 231 kts | 335° |
| 2026-05-07 15:48 | 22.16735 | 113.74568 | 2854 ft | 226 kts | 335° |
| 2026-05-07 15:49 | 22.18150 | 113.73862 | 2614 ft | 221 kts | 335° |
| 2026-05-07 15:49 | 22.19592 | 113.73435 | 2359 ft | 215 kts | 3° |
| 2026-05-07 15:49 | 22.21034 | 113.73816 | 2117 ft | 212 kts | 24° |
| 2026-05-07 15:49 | 22.22351 | 113.74490 | 1993 ft | 202 kts | 29° |
| 2026-05-07 15:50 | 22.23552 | 113.75172 | 1960 ft | 185 kts | 30° |
| 2026-05-07 15:50 | 22.24645 | 113.75823 | 1961 ft | 174 kts | 38° |
| 2026-05-07 15:50 | 22.25413 | 113.76789 | 1967 ft | 167 kts | 68° |
| 2026-05-07 15:50 | 22.25794 | 113.77981 | 1971 ft | 165 kts | 75° |
| 2026-05-07 15:51 | 22.26155 | 113.79150 | 1978 ft | 161 kts | 72° |
| 2026-05-07 15:51 | 22.26524 | 113.80275 | 1825 ft | 158 kts | 72° |
| 2026-05-07 15:51 | 22.26892 | 113.81409 | 1629 ft | 156 kts | 72° |
| 2026-05-07 15:51 | 22.27246 | 113.82497 | 1436 ft | 153 kts | 72° |
| 2026-05-07 15:52 | 22.27600 | 113.83589 | 1240 ft | 152 kts | 72° |
| 2026-05-07 15:52 | 22.27954 | 113.84661 | 951 ft | 151 kts | 71° |
| 2026-05-07 15:52 | 22.28312 | 113.85719 | 794 ft | 149 kts | 71° |
| 2026-05-07 15:52 | 22.28656 | 113.86776 | 602 ft | 149 kts | 73° |
| 2026-05-07 15:53 | 22.28994 | 113.87838 | 469 ft | 148 kts | 72° |
| 2026-05-07 15:53 | 22.29328 | 113.88894 | 239 ft | 148 kts | 72° |
| 2026-05-07 15:53 | 22.29665 | 113.89942 | 88 ft | 148 kts | 72° |
| 2026-05-07 15:53 | 22.29979 | 113.90916 | 41 ft | 112 kts | 68° |
| 2026-05-07 15:54 | 22.30169 | 113.91496 | 41 ft | 56 kts | 69° |
| 2026-05-07 15:54 | 22.30251 | 113.91760 | 41 ft | 19 kts | 71° |
| 2026-05-07 15:54 | 22.30265 | 113.91805 | 41 ft | 0 kts | 71° |
| 2026-05-07 15:54 | 22.30266 | 113.91809 | 41 ft | 0 kts | 69° |
| 2026-05-07 15:55 | 22.30268 | 113.91814 | 41 ft | 0 kts | 65° |
| 2026-05-07 15:55 | 22.30268 | 113.91816 | 41 ft | 0 kts | 65° |